Time;durP1;ratioP1;P1;durP2;ratioP2;P2;SDS_P1;SDS_P2;PMS_P1;PMS_P2;Temp;Humidity;BMP_temperature;BMP_pressure;BME280_temperature;BME280_humidity;BME280_pressure;Samples;Min_cycle;Max_cycle;Signal;HPM_P1;HPM_P2
2022/02/24 00:00:50;;;;;;;23.32;19.07;;;;;;;3.72;60.84;101265.97;460899;113;923188;-80
2022/02/24 00:01:53;;;;;;;19.74;17.56;;;;;;;3.74;60.91;101266.67;462389;113;922698;-79
2022/02/24 00:02:57;;;;;;;23.06;17.77;;;;;;;3.75;60.93;101272.89;462886;113;922504;-80
2022/02/24 00:04:00;;;;;;;23.92;17.22;;;;;;;3.75;61.03;101262.95;459844;113;922527;-78
2022/02/24 00:05:04;;;;;;;17.93;15.67;;;;;;;3.75;60.93;101278.28;458304;113;922966;-80
2022/02/24 00:06:07;;;;;;;17.24;15.46;;;;;;;3.74;60.86;101279.31;459846;113;922562;-79
2022/02/24 00:07:10;;;;;;;16.58;14.96;;;;;;;3.73;60.88;101280.30;460009;113;922628;-80
2022/02/24 00:08:14;;;;;;;19.21;16.60;;;;;;;3.72;60.86;101281.30;458945;113;922663;-79
2022/02/24 00:09:17;;;;;;;19.54;16.58;;;;;;;3.71;60.86;101280.45;459213;113;922650;-79
2022/02/24 00:10:22;;;;;;;21.69;18.58;;;;;;;3.70;60.86;101281.45;457502;113;923394;-80
2022/02/24 00:11:25;;;;;;;21.64;18.82;;;;;;;3.69;60.83;101276.23;459804;113;922565;-79
2022/02/24 00:12:28;;;;;;;20.64;18.62;;;;;;;3.69;60.85;101282.44;457712;113;922677;-80
2022/02/24 00:13:31;;;;;;;18.90;17.01;;;;;;;3.69;60.82;101284.32;457877;113;922460;-77
2022/02/24 00:14:34;;;;;;;20.65;17.02;;;;;;;3.70;60.84;101277.90;458535;113;922554;-79
2022/02/24 00:15:39;;;;;;;21.47;17.51;;;;;;;3.70;60.83;101276.05;457787;113;923064;-80
2022/02/24 00:16:42;;;;;;;18.68;16.87;;;;;;;3.70;60.78;101283.30;456910;113;922633;-79
2022/02/24 00:17:46;;;;;;;21.02;18.78;;;;;;;3.70;60.75;101286.84;458380;113;922552;-80
2022/02/24 00:18:49;;;;;;;20.82;18.61;;;;;;;3.70;60.77;101285.98;461832;113;923008;-80
2022/02/24 00:19:52;;;;;;;18.99;17.07;;;;;;;3.70;60.71;101285.98;459948;113;923028;-80
2022/02/24 00:20:55;;;;;;;18.69;16.99;;;;;;;3.70;60.68;101294.08;459699;113;922568;-80
2022/02/24 00:21:59;;;;;;;19.75;17.81;;;;;;;3.70;60.75;101294.08;461212;113;922651;-79
2022/02/24 00:23:03;;;;;;;20.41;17.54;;;;;;;3.70;60.68;101289.54;460823;113;922751;-79
2022/02/24 00:24:08;;;;;;;19.78;17.15;;;;;;;3.69;60.60;101285.14;459796;113;930580;-79
2022/02/24 00:25:11;;;;;;;20.23;18.12;;;;;;;3.68;60.54;101291.56;459272;113;930682;-79
2022/02/24 00:26:16;;;;;;;20.76;17.64;;;;;;;3.68;60.60;101290.70;459259;113;922920;-80
2022/02/24 00:27:19;;;;;;;19.83;16.73;;;;;;;3.67;60.58;101289.86;458942;113;922675;-78
2022/02/24 00:28:22;;;;;;;18.94;17.07;;;;;;;3.67;60.65;101287.16;459010;113;922658;-78
2022/02/24 00:29:25;;;;;;;19.33;17.22;;;;;;;3.66;60.72;101285.45;460632;113;922545;-79
2022/02/24 00:30:28;;;;;;;21.11;18.91;;;;;;;3.67;60.71;101287.16;459640;113;922625;-80
2022/02/24 00:31:32;;;;;;;19.73;16.94;;;;;;;3.66;60.73;101285.45;459347;113;923057;-79
2022/02/24 00:32:35;;;;;;;19.56;17.58;;;;;;;3.65;60.68;101281.06;459423;113;922677;-78
2022/02/24 00:33:39;;;;;;;19.89;16.99;;;;;;;3.66;60.69;101285.45;459022;113;922481;-80
2022/02/24 00:34:44;;;;;;;18.74;17.04;;;;;;;3.64;60.67;101287.45;458838;113;930467;-80
2022/02/24 00:35:48;;;;;;;19.84;17.82;;;;;;;3.66;60.61;101284.61;458638;113;922535;-79
2022/02/24 00:36:52;;;;;;;20.04;16.85;;;;;;;3.65;60.58;101288.30;456753;113;922570;-80
2022/02/24 00:37:55;;;;;;;17.94;16.16;;;;;;;3.65;60.51;101291.00;457516;113;922577;-80
2022/02/24 00:38:59;;;;;;;18.58;16.84;;;;;;;3.64;60.51;101286.59;458774;113;930526;-80
2022/02/24 00:40:03;;;;;;;18.74;16.29;;;;;;;3.63;60.49;101291.17;457703;113;923095;-80
2022/02/24 00:41:06;;;;;;;19.83;17.48;;;;;;;3.63;60.46;101290.32;458605;113;922630;-80
2022/02/24 00:42:11;;;;;;;17.77;15.89;;;;;;;3.62;60.45;101283.23;458143;113;930532;-79
2022/02/24 00:43:14;;;;;;;19.79;17.27;;;;;;;3.60;60.41;101286.06;461129;113;923122;-79
2022/02/24 00:44:17;;;;;;;17.37;15.32;;;;;;;3.59;60.39;101278.13;461315;113;922583;-80
2022/02/24 00:45:21;;;;;;;18.80;16.29;;;;;;;3.58;60.41;101284.55;459912;113;922527;-80
2022/02/24 00:46:24;;;;;;;21.46;16.38;;;;;;;3.57;60.37;101282.84;459870;113;930431;-79
2022/02/24 00:47:27;;;;;;;18.77;16.83;;;;;;;3.59;60.58;101294.30;460127;113;923238;-79
2022/02/24 00:48:30;;;;;;;17.89;16.02;;;;;;;3.58;60.66;101290.78;461175;113;922552;-79
2022/02/24 00:49:34;;;;;;;20.96;16.97;;;;;;;3.59;60.76;101287.06;461202;113;922505;-78
2022/02/24 00:50:38;;;;;;;17.92;16.18;;;;;;;3.61;60.79;101293.16;458199;113;923087;-80
2022/02/24 00:51:41;;;;;;;19.90;16.61;;;;;;;3.60;60.83;101294.16;459129;113;922557;-80
2022/02/24 00:52:44;;;;;;;20.48;15.91;;;;;;;3.61;60.84;101293.16;459507;113;922678;-80
2022/02/24 00:53:49;;;;;;;16.92;15.19;;;;;;;3.62;60.67;101297.56;459418;113;922744;-79
2022/02/24 00:54:54;;;;;;;18.39;16.44;;;;;;;3.62;60.62;101299.41;458786;113;930606;-79
2022/02/24 00:55:58;;;;;;;19.02;16.56;;;;;;;3.60;60.62;101301.39;460975;113;923059;-78
2022/02/24 00:57:01;;;;;;;19.77;16.90;;;;;;;3.58;60.61;101304.27;459340;113;922804;-79
2022/02/24 00:58:05;;;;;;;19.79;16.01;;;;;;;3.58;60.57;101301.57;458390;113;922545;-79
2022/02/24 00:59:08;;;;;;;19.16;15.59;;;;;;;3.57;60.54;101299.87;459659;113;922559;-79
2022/02/24 01:00:13;;;;;;;17.35;15.75;;;;;;;3.56;60.58;101300.02;458488;113;930468;-80
2022/02/24 01:01:16;;;;;;;19.02;16.33;;;;;;;3.56;60.55;101311.64;458253;113;922910;-80
2022/02/24 01:02:20;;;;;;;18.38;16.48;;;;;;;3.56;60.53;101308.09;458073;113;922661;-79
2022/02/24 01:03:23;;;;;;;18.57;16.61;;;;;;;3.53;60.52;101306.54;458124;113;922589;-79
2022/02/24 01:04:27;;;;;;;18.76;16.64;;;;;;;3.53;60.54;101306.54;461820;113;930552;-78
2022/02/24 01:05:30;;;;;;;18.59;15.89;;;;;;;3.52;60.54;101307.56;462865;113;922501;-78
2022/02/24 01:06:33;;;;;;;18.56;16.73;;;;;;;3.52;60.54;101310.27;463745;113;922968;-77
2022/02/24 01:07:37;;;;;;;18.35;16.44;;;;;;;3.51;60.53;101307.70;464500;113;922594;-80
2022/02/24 01:08:40;;;;;;;21.61;16.04;;;;;;;3.50;60.50;101314.95;462195;113;923019;-78
2022/02/24 01:09:44;;;;;;;18.52;16.61;;;;;;;3.49;60.48;101307.85;461329;113;922629;-79
2022/02/24 01:10:47;;;;;;;20.91;16.79;;;;;;;3.49;60.54;101305.16;462638;113;923049;-79
2022/02/24 01:11:50;;;;;;;17.93;16.38;;;;;;;3.49;60.67;101315.94;462568;113;930722;-79
2022/02/24 01:12:55;;;;;;;17.98;16.28;;;;;;;3.49;60.79;101315.09;462698;113;922622;-79
2022/02/24 01:13:58;;;;;;;17.77;15.91;;;;;;;3.48;60.85;101308.84;462479;113;922546;-77
2022/02/24 01:15:06;;;;;;;18.24;16.40;;;;;;;3.49;60.92;101304.30;461654;113;923063;-80
2022/02/24 01:16:10;;;;;;;19.88;17.69;;;;;;;3.49;61.01;101313.24;462442;113;923442;-79
2022/02/24 01:17:13;;;;;;;19.61;17.55;;;;;;;3.51;61.10;101313.10;462426;113;922713;-79
2022/02/24 01:18:16;;;;;;;23.50;17.92;;;;;;;3.53;61.13;101311.11;464127;113;922353;-79
2022/02/24 01:19:19;;;;;;;20.13;17.12;;;;;;;3.54;61.18;101315.48;463774;113;922823;-79
2022/02/24 01:20:22;;;;;;;21.48;17.18;;;;;;;3.55;61.18;101314.48;462428;113;922719;-78
2022/02/24 01:21:27;;;;;;;29.10;19.42;;;;;;;3.56;61.21;101314.34;463012;113;922794;-78
2022/02/24 01:22:30;;;;;;;20.32;17.38;;;;;;;3.58;61.21;101312.36;464242;113;922544;-79
2022/02/24 01:23:33;;;;;;;23.99;18.20;;;;;;;3.58;61.15;101320.44;462768;113;922515;-81
2022/02/24 01:24:37;;;;;;;21.34;18.18;;;;;;;3.60;61.11;101321.13;461779;113;931099;-80
2022/02/24 01:25:41;;;;;;;21.23;18.46;;;;;;;3.61;61.12;101321.97;462117;113;922674;-78
2022/02/24 01:26:44;;;;;;;20.79;17.59;;;;;;;3.62;61.12;101323.67;462924;113;922624;-79
2022/02/24 01:27:47;;;;;;;22.07;19.69;;;;;;;3.63;61.11;101315.44;463316;113;922663;-80
2022/02/24 01:28:50;;;;;;;23.39;19.54;;;;;;;3.65;61.00;101323.36;461944;113;922542;-79
2022/02/24 01:29:53;;;;;;;26.10;20.99;;;;;;;3.64;60.84;101314.41;463187;113;922536;-79
2022/02/24 01:30:58;;;;;;;22.68;20.00;;;;;;;3.65;60.74;101321.52;461790;113;922735;-79
2022/02/24 01:32:02;;;;;;;25.77;21.27;;;;;;;3.65;60.69;101315.27;462937;113;922693;-79
2022/02/24 01:33:07;;;;;;;23.83;20.61;;;;;;;3.64;60.76;101313.56;462171;113;922900;-80
2022/02/24 01:34:10;;;;;;;25.27;19.84;;;;;;;3.63;60.71;101315.44;461510;113;930546;-80
2022/02/24 01:35:13;;;;;;;23.41;19.88;;;;;;;3.63;60.69;101307.35;464075;113;922575;-78
2022/02/24 01:36:17;;;;;;;30.07;20.64;;;;;;;3.64;60.67;101313.56;461758;113;922747;-79
2022/02/24 01:37:20;;;;;;;26.27;20.14;;;;;;;3.65;60.64;101309.88;462369;113;922575;-79
2022/02/24 01:38:23;;;;;;;23.44;20.60;;;;;;;3.65;60.63;101312.57;461195;113;922720;-80
2022/02/24 01:39:27;;;;;;;25.79;21.50;;;;;;;3.64;60.59;101309.02;464508;113;930530;-80
2022/02/24 01:40:30;;;;;;;29.87;21.58;;;;;;;3.64;60.38;101306.33;463163;113;922977;-80
2022/02/24 01:41:34;;;;;;;24.14;21.41;;;;;;;3.64;60.52;101309.02;462006;113;922701;-79
2022/02/24 01:42:38;;;;;;;26.12;21.57;;;;;;;3.62;60.54;101311.05;463083;113;922558;-79
2022/02/24 01:43:46;;;;;;;23.91;20.71;;;;;;;3.62;60.56;101311.05;463276;113;922576;-80
2022/02/24 01:44:49;;;;;;;28.26;23.24;;;;;;;3.61;60.47;101316.58;462168;113;922732;-79
2022/02/24 01:45:53;;;;;;;24.58;21.99;;;;;;;3.61;60.47;101316.58;461687;113;922718;-79
2022/02/24 01:46:57;;;;;;;24.29;21.70;;;;;;;3.61;60.56;101309.34;462464;113;923132;-79
2022/02/24 01:48:00;;;;;;;27.14;22.22;;;;;;;3.62;60.60;101319.13;463759;113;922989;-79
2022/02/24 01:49:06;;;;;;;24.32;21.85;;;;;;;3.64;60.58;101313.56;461849;113;922468;-79
2022/02/24 01:50:12;;;;;;;26.85;22.91;;;;;;;3.65;60.51;101310.72;461240;113;922592;-80
2022/02/24 01:51:15;;;;;;;25.91;21.47;;;;;;;3.66;60.47;101312.42;463093;113;930280;-80
2022/02/24 01:52:19;;;;;;;28.41;20.99;;;;;;;3.67;60.42;101319.52;462317;113;922835;-79
2022/02/24 01:53:22;;;;;;;24.32;20.16;;;;;;;3.66;60.27;101315.13;463211;113;930340;-80
2022/02/24 01:54:26;;;;;;;25.89;21.07;;;;;;;3.65;60.18;101309.88;464130;113;930813;-80
2022/02/24 01:55:29;;;;;;;26.12;21.14;;;;;;;3.64;60.20;101325.20;463054;113;922547;-80
2022/02/24 01:56:34;;;;;;;23.06;20.52;;;;;;;3.62;60.18;101321.83;447703;117;930453;-81
2022/02/24 01:57:37;;;;;;;27.15;22.38;;;;;;;3.62;60.22;101329.92;461649;113;930678;-79
2022/02/24 01:58:42;;;;;;;25.46;20.98;;;;;;;3.61;60.21;101325.52;464210;113;930267;-80
2022/02/24 01:59:46;;;;;;;32.16;23.19;;;;;;;3.59;60.24;101332.90;460096;113;922812;-79
2022/02/24 02:00:50;;;;;;;28.24;23.34;;;;;;;3.58;60.28;101333.92;461557;113;922849;-79
2022/02/24 02:01:54;;;;;;;29.69;23.20;;;;;;;3.57;60.31;101332.22;462090;113;922555;-78
2022/02/24 02:02:58;;;;;;;30.58;24.61;;;;;;;3.57;60.34;101332.22;464013;113;930428;-77
2022/02/24 02:04:01;;;;;;;25.12;22.01;;;;;;;3.56;60.29;101333.22;462089;113;922807;-76
2022/02/24 02:05:07;;;;;;;26.46;22.67;;;;;;;3.54;60.30;101332.51;458603;114;930392;-78
2022/02/24 02:06:11;;;;;;;27.06;22.76;;;;;;;3.53;60.26;101329.98;458476;113;925443;-78
2022/02/24 02:07:15;;;;;;;26.05;22.62;;;;;;;3.51;60.27;101340.91;459178;115;922591;-77
2022/02/24 02:08:19;;;;;;;26.15;21.85;;;;;;;3.50;60.31;101344.60;458635;113;922488;-79
2022/02/24 02:09:23;;;;;;;25.19;22.45;;;;;;;3.49;60.35;101340.20;457717;113;922833;-78
2022/02/24 02:10:28;;;;;;;27.83;23.49;;;;;;;3.48;60.39;101346.59;459054;114;922578;-77
2022/02/24 02:11:32;;;;;;;30.55;24.94;;;;;;;3.47;60.42;101344.92;458485;113;922790;-77
2022/02/24 02:12:50;;;;;;;40.35;28.10;;;;;;;3.48;60.36;101351.13;457624;113;923128;-78
2022/02/24 02:13:53;;;;;;;40.24;28.09;;;;;;;3.45;60.35;101348.75;458698;113;922598;-78
2022/02/24 02:14:57;;;;;;;44.77;30.14;;;;;;;3.42;60.34;101341.80;458654;113;922600;-78
2022/02/24 02:16:00;;;;;;;50.08;31.02;;;;;;;3.42;60.35;101343.67;458816;113;930429;-77
2022/02/24 02:17:05;;;;;;;43.45;29.93;;;;;;;3.40;60.32;101343.81;458304;114;922651;-78
2022/02/24 02:18:11;;;;;;;46.81;32.18;;;;;;;3.38;60.23;101351.19;458929;115;922684;-77
2022/02/24 02:19:15;;;;;;;45.06;30.27;;;;;;;3.36;60.17;101348.63;459903;115;922654;-79
2022/02/24 02:20:20;;;;;;;42.78;29.31;;;;;;;3.34;60.08;101347.95;458205;114;930414;-78
2022/02/24 02:21:23;;;;;;;45.76;31.41;;;;;;;3.33;60.01;101353.48;457998;113;930970;-78
2022/02/24 02:22:27;;;;;;;42.38;30.25;;;;;;;3.31;59.99;101353.62;459354;114;922885;-78
2022/02/24 02:23:30;;;;;;;43.22;30.30;;;;;;;3.30;59.92;101357.34;459763;114;930297;-77
2022/02/24 02:24:34;;;;;;;43.58;31.62;;;;;;;3.28;59.89;101359.33;458002;115;930362;-78
2022/02/24 02:25:37;;;;;;;43.60;30.42;;;;;;;3.27;59.88;101354.08;458013;113;922768;-78
2022/02/24 02:26:41;;;;;;;37.97;29.40;;;;;;;3.25;59.92;101356.09;457366;115;922808;-78
2022/02/24 02:27:44;;;;;;;40.90;29.29;;;;;;;3.22;59.79;101359.92;458144;115;922628;-78
2022/02/24 02:28:47;;;;;;;44.26;29.11;;;;;;;3.19;59.79;101352.14;451238;116;923011;-79
2022/02/24 02:29:51;;;;;;;35.44;27.81;;;;;;;3.17;59.86;101358.66;447597;115;922764;-79
2022/02/24 02:30:54;;;;;;;37.18;28.40;;;;;;;3.13;59.93;101358.13;448407;115;922826;-78
2022/02/24 02:31:58;;;;;;;38.76;28.74;;;;;;;3.12;59.98;101360.95;457645;113;931018;-80
2022/02/24 02:33:02;;;;;;;36.75;28.78;;;;;;;3.10;60.00;101363.79;457223;114;930584;-78
2022/02/24 02:34:09;;;;;;;36.85;29.19;;;;;;;3.07;60.06;101366.80;457847;114;930592;-77
2022/02/24 02:35:13;;;;;;;38.78;28.41;;;;;;;3.06;60.10;101362.39;458997;115;922843;-78
2022/02/24 02:36:18;;;;;;;42.61;30.21;;;;;;;3.05;60.11;101362.53;457983;113;922674;-82
2022/02/24 02:37:21;;;;;;;36.42;28.04;;;;;;;3.02;60.17;101365.53;458021;113;923036;-78
2022/02/24 02:38:24;;;;;;;36.99;27.88;;;;;;;3.01;60.23;101366.52;459123;114;923507;-75
2022/02/24 02:39:28;;;;;;;38.35;28.43;;;;;;;2.99;60.24;101372.05;458607;113;923148;-78
2022/02/24 02:40:37;;;;;;;41.01;29.52;;;;;;;2.98;60.37;101366.83;458571;113;930505;-79
2022/02/24 02:41:40;;;;;;;46.51;30.56;;;;;;;2.97;60.42;101367.82;447604;115;930571;-77
2022/02/24 02:42:44;;;;;;;40.65;29.46;;;;;;;2.95;60.42;101365.27;441813;118;922789;-79
2022/02/24 02:43:48;;;;;;;37.10;29.11;;;;;;;2.94;60.41;101371.64;450831;115;923276;-79
2022/02/24 02:44:51;;;;;;;35.84;28.61;;;;;;;2.92;60.52;101366.39;458492;113;930600;-78
2022/02/24 02:45:56;;;;;;;40.42;29.95;;;;;;;2.90;60.63;101372.94;458065;113;922615;-78
2022/02/24 02:46:59;;;;;;;43.42;28.91;;;;;;;2.91;60.66;101369.26;459308;115;922559;-79
2022/02/24 02:48:05;;;;;;;38.01;30.02;;;;;;;2.89;60.76;101372.09;459389;113;922876;-77
2022/02/24 02:49:08;;;;;;;43.62;27.88;;;;;;;2.89;60.80;101374.78;458568;114;930564;-76
2022/02/24 02:50:13;;;;;;;35.09;28.24;;;;;;;2.90;60.92;101372.94;458696;114;923155;-76
2022/02/24 02:51:18;;;;;;;38.61;30.23;;;;;;;2.91;60.95;101370.11;458069;113;922728;-79
2022/02/24 02:52:22;;;;;;;38.28;28.64;;;;;;;2.90;60.94;101381.88;457215;113;922599;-78
2022/02/24 02:53:25;;;;;;;40.21;28.76;;;;;;;2.90;61.01;101379.18;457996;113;930420;-78
2022/02/24 02:54:28;;;;;;;36.50;29.21;;;;;;;2.90;61.11;101381.88;457799;113;930562;-78
2022/02/24 02:55:32;;;;;;;37.96;28.21;;;;;;;2.91;61.11;101380.03;458533;115;922618;-80
2022/02/24 02:56:35;;;;;;;40.89;29.04;;;;;;;2.90;61.12;101376.48;458064;114;930546;-80
2022/02/24 02:57:39;;;;;;;42.32;29.19;;;;;;;2.90;61.15;101378.33;458159;114;930723;-77
2022/02/24 02:58:42;;;;;;;38.13;29.51;;;;;;;2.89;61.16;101379.31;458088;115;930448;-76
2022/02/24 02:59:46;;;;;;;40.22;29.80;;;;;;;2.88;61.23;101381.16;459020;115;922478;-78
2022/02/24 03:00:49;;;;;;;38.34;29.73;;;;;;;2.87;61.28;101382.14;458295;113;930649;-77
2022/02/24 03:01:54;;;;;;;37.93;29.40;;;;;;;2.86;61.31;101379.63;458106;113;931053;-77
2022/02/24 03:02:57;;;;;;;38.95;29.92;;;;;;;2.86;61.37;101382.31;459011;115;930560;-76
2022/02/24 03:04:01;;;;;;;34.90;29.11;;;;;;;2.85;61.45;101386.85;459407;113;923225;-78
2022/02/24 03:05:08;;;;;;;42.46;29.38;;;;;;;2.85;61.53;101377.91;457798;113;922558;-76
2022/02/24 03:06:12;;;;;;;39.94;29.36;;;;;;;2.85;61.65;101386.85;458384;113;922612;-78
2022/02/24 03:07:15;;;;;;;38.41;28.56;;;;;;;2.87;61.77;101382.14;459185;113;922570;-79
2022/02/24 03:08:20;;;;;;;41.17;29.25;;;;;;;2.87;61.86;101382.14;458785;113;922536;-79
2022/02/24 03:09:24;;;;;;;36.83;27.66;;;;;;;2.88;61.88;101375.77;458354;113;922582;-80
2022/02/24 03:10:28;;;;;;;32.89;26.46;;;;;;;2.91;61.98;101380.03;458412;113;922504;-79
2022/02/24 03:11:32;;;;;;;37.06;27.81;;;;;;;2.93;61.94;101383.41;459304;115;922575;-76
2022/02/24 03:12:36;;;;;;;37.85;29.27;;;;;;;2.94;61.90;101377.88;458437;114;923181;-78
2022/02/24 03:13:39;;;;;;;40.27;29.42;;;;;;;2.97;61.88;101381.29;458539;114;922718;-79
2022/02/24 03:14:43;;;;;;;39.29;29.18;;;;;;;2.98;61.84;101377.61;458519;113;922588;-78
2022/02/24 03:15:47;;;;;;;37.48;28.85;;;;;;;2.99;61.88;101381.97;458538;113;930506;-79
2022/02/24 03:16:51;;;;;;;40.24;29.04;;;;;;;3.00;61.84;101383.67;458048;114;922634;-80
2022/02/24 03:17:55;;;;;;;34.50;27.65;;;;;;;2.99;61.76;101381.97;458296;114;922573;-77
2022/02/24 03:18:58;;;;;;;39.84;28.61;;;;;;;2.99;61.72;101381.97;458691;115;922494;-79
2022/02/24 03:20:02;;;;;;;36.99;28.03;;;;;;;2.99;61.81;101384.67;457596;113;928940;-76
2022/02/24 03:21:05;;;;;;;38.66;29.10;;;;;;;2.98;61.66;101385.69;457806;114;922566;-77
2022/02/24 03:22:11;;;;;;;37.03;28.17;;;;;;;2.97;61.87;101381.29;457657;113;923054;-76
2022/02/24 03:23:14;;;;;;;39.25;28.19;;;;;;;2.96;61.90;101385.83;458515;115;922646;-81
2022/02/24 03:24:18;;;;;;;39.36;28.62;;;;;;;2.96;61.88;101384.98;458299;113;922726;-78
2022/02/24 03:25:21;;;;;;;37.88;28.23;;;;;;;2.97;61.95;101389.37;457922;113;922939;-77
2022/02/24 03:26:25;;;;;;;43.00;28.57;;;;;;;2.96;61.94;101388.52;458403;115;930541;-77
2022/02/24 03:27:30;;;;;;;43.16;28.51;;;;;;;2.97;61.92;101389.37;458681;113;930554;-77
2022/02/24 03:28:34;;;;;;;40.98;27.61;;;;;;;2.94;61.90;101385.96;457324;114;922542;-79
2022/02/24 03:29:37;;;;;;;41.42;28.37;;;;;;;2.96;61.90;101387.67;457761;114;922562;-76
2022/02/24 03:30:41;;;;;;;34.99;27.66;;;;;;;2.96;61.86;101390.36;459259;114;922665;-78
2022/02/24 03:31:44;;;;;;;41.08;28.19;;;;;;;2.96;61.90;101390.36;458832;115;922600;-79
2022/02/24 03:32:49;;;;;;;46.08;30.43;;;;;;;2.95;61.87;101392.20;458181;113;922623;-78
2022/02/24 03:33:53;;;;;;;47.32;31.74;;;;;;;2.93;61.78;101392.34;459534;115;930346;-80
2022/02/24 03:34:56;;;;;;;55.68;35.88;;;;;;;2.92;61.82;101398.72;458728;115;923184;-81
2022/02/24 03:36:00;;;;;;;59.18;39.23;;;;;;;2.91;61.83;101391.66;457728;115;930916;-80
2022/02/24 03:37:03;;;;;;;66.69;41.78;;;;;;;2.91;61.88;101397.05;458759;114;930414;-77
2022/02/24 03:38:07;;;;;;;76.14;47.35;;;;;;;2.91;61.98;101397.05;459865;113;922636;-77
2022/02/24 03:39:10;;;;;;;74.71;44.74;;;;;;;2.94;61.98;101398.58;460146;113;922559;-79
2022/02/24 03:40:16;;;;;;;73.53;43.37;;;;;;;2.92;61.93;101398.72;457959;113;922918;-81
2022/02/24 03:41:21;;;;;;;55.64;34.84;;;;;;;2.93;61.90;101399.57;457756;114;923359;-78
2022/02/24 03:42:24;;;;;;;75.45;45.16;;;;;;;2.91;61.93;101406.97;458838;114;922570;-76
2022/02/24 03:43:28;;;;;;;76.34;47.39;;;;;;;2.91;61.93;101406.97;457562;115;928784;-79
2022/02/24 03:44:34;;;;;;;66.01;43.98;;;;;;;2.89;61.83;101412.48;457765;113;930444;-76
2022/02/24 03:45:38;;;;;;;68.40;41.59;;;;;;;2.87;61.82;101406.39;450432;117;922684;-78
2022/02/24 03:46:42;;;;;;;66.27;42.54;;;;;;;2.87;61.63;101406.39;450369;115;930670;-77
2022/02/24 03:47:45;;;;;;;60.46;41.78;;;;;;;2.86;61.89;101415.48;457589;113;930717;-79
2022/02/24 03:48:49;;;;;;;60.35;39.51;;;;;;;2.85;61.87;101411.09;458383;113;923018;-80
2022/02/24 03:49:53;;;;;;;64.98;41.65;;;;;;;2.84;61.85;101406.69;458270;113;923046;-78
2022/02/24 03:50:56;;;;;;;58.78;39.21;;;;;;;2.83;61.86;101413.06;457984;113;922987;-77
2022/02/24 03:52:00;;;;;;;60.32;38.16;;;;;;;2.82;61.86;101414.05;458608;115;930620;-77
2022/02/24 03:53:03;;;;;;;56.00;38.03;;;;;;;2.82;61.87;101410.51;457881;113;922622;-77
2022/02/24 03:54:07;;;;;;;61.04;35.45;;;;;;;2.82;61.89;101410.51;458681;113;923369;-76
2022/02/24 03:55:10;;;;;;;49.13;33.07;;;;;;;2.81;61.94;101408.83;458926;113;930665;-78
2022/02/24 03:56:14;;;;;;;51.12;33.84;;;;;;;2.79;61.94;101414.36;458895;115;930486;-78
2022/02/24 03:57:18;;;;;;;63.96;38.73;;;;;;;2.80;62.00;101415.20;458555;114;922588;-80
2022/02/24 03:58:21;;;;;;;71.07;41.40;;;;;;;2.78;61.99;101418.04;458449;115;922600;-78
2022/02/24 03:59:26;;;;;;;60.84;38.54;;;;;;;2.77;61.98;101421.72;450626;117;922788;-77
2022/02/24 04:00:29;;;;;;;62.11;38.24;;;;;;;2.77;61.82;101419.02;450343;115;922889;-78
2022/02/24 04:01:33;;;;;;;53.23;35.82;;;;;;;2.77;61.75;101420.86;458150;114;922643;-78
2022/02/24 04:02:38;;;;;;;53.07;35.44;;;;;;;2.75;61.73;101418.34;458470;113;922510;-78
2022/02/24 04:03:41;;;;;;;53.41;33.49;;;;;;;2.73;61.66;101417.63;459167;115;922584;-78
2022/02/24 04:04:45;;;;;;;43.61;32.51;;;;;;;2.72;61.62;101423.99;458936;114;923118;-77
2022/02/24 04:05:49;;;;;;;43.86;30.05;;;;;;;2.72;61.60;101423.14;456855;114;922503;-77
2022/02/24 04:06:52;;;;;;;50.03;32.68;;;;;;;2.70;61.60;101420.58;448965;116;922650;-76
2022/02/24 04:07:56;;;;;;;57.76;35.29;;;;;;;2.68;61.58;101425.28;447741;117;930568;-79
2022/02/24 04:08:59;;;;;;;53.96;34.59;;;;;;;2.67;61.60;101428.96;448326;116;922702;-77
2022/02/24 04:10:04;;;;;;;56.02;34.91;;;;;;;2.66;61.60;101426.41;447315;116;922772;-80
2022/02/24 04:11:10;;;;;;;54.01;34.35;;;;;;;2.65;61.59;101430.94;448078;116;931045;-81
2022/02/24 04:12:16;;;;;;;52.82;33.78;;;;;;;2.66;61.69;101429.09;448982;117;922591;-80
2022/02/24 04:13:20;;;;;;;52.52;33.52;;;;;;;2.65;61.78;101433.63;448607;117;925691;-81
2022/02/24 04:14:24;;;;;;;49.56;31.06;;;;;;;2.66;62.13;101431.79;449165;116;922675;-80
2022/02/24 04:15:27;;;;;;;44.67;30.55;;;;;;;2.66;62.13;101431.79;449936;116;930483;-78
2022/02/24 04:16:31;;;;;;;43.78;28.79;;;;;;;2.67;62.10;101437.04;448878;116;922794;-80
2022/02/24 04:17:34;;;;;;;49.46;28.02;;;;;;;2.69;62.16;101439.59;449052;116;930389;-78
2022/02/24 04:18:37;;;;;;;42.28;27.29;;;;;;;2.70;62.17;101444.00;449911;116;922854;-79
2022/02/24 04:19:42;;;;;;;36.28;26.59;;;;;;;2.72;62.12;101440.15;450268;116;922662;-79
2022/02/24 04:20:46;;;;;;;43.38;28.94;;;;;;;2.74;62.10;101445.40;441726;118;922671;-80
2022/02/24 04:21:52;;;;;;;56.84;34.50;;;;;;;2.77;62.10;101447.80;449267;117;930498;-81
2022/02/24 04:22:55;;;;;;;52.79;34.55;;;;;;;2.77;61.98;101443.26;441665;118;922679;-77
2022/02/24 04:23:59;;;;;;;61.68;36.63;;;;;;;2.79;61.90;101443.13;449668;117;923098;-80
2022/02/24 04:25:02;;;;;;;58.11;35.44;;;;;;;2.77;61.87;101448.64;436824;120;922835;-77
2022/02/24 04:26:06;;;;;;;60.38;36.31;;;;;;;2.78;61.85;101453.05;439256;118;922607;-79
2022/02/24 04:27:09;;;;;;;41.77;28.75;;;;;;;2.78;61.86;101447.66;442174;119;922565;-76
2022/02/24 04:28:13;;;;;;;39.27;26.57;;;;;;;2.78;61.89;101455.73;443582;117;922537;-80
2022/02/24 04:29:16;;;;;;;36.80;25.69;;;;;;;2.77;61.87;101454.03;445169;117;930445;-81
2022/02/24 04:30:22;;;;;;;36.89;25.74;;;;;;;2.77;61.86;101453.18;444487;118;930715;-81
2022/02/24 04:31:26;;;;;;;35.36;26.70;;;;;;;2.76;61.89;101449.63;445735;118;923494;-81
2022/02/24 04:32:30;;;;;;;35.51;25.65;;;;;;;2.78;61.92;101455.73;445119;116;922550;-80
2022/02/24 04:33:34;;;;;;;56.55;33.00;;;;;;;2.79;61.93;101449.36;445607;116;922813;-81
2022/02/24 04:34:37;;;;;;;45.87;30.88;;;;;;;2.81;61.83;101455.44;445012;117;930835;-80
2022/02/24 04:35:41;;;;;;;56.19;30.51;;;;;;;2.80;61.66;101451.07;445172;118;930384;-80
2022/02/24 04:36:44;;;;;;;42.85;29.89;;;;;;;2.82;61.74;101458.98;444640;117;923033;-81
2022/02/24 04:37:48;;;;;;;50.29;30.96;;;;;;;2.82;61.63;101457.14;435275;119;930152;-79
2022/02/24 04:38:51;;;;;;;62.34;33.11;;;;;;;2.82;61.57;101457.14;447499;115;922633;-80
2022/02/24 04:39:55;;;;;;;67.84;34.89;;;;;;;2.82;61.58;101459.84;441696;118;930511;-80
2022/02/24 04:40:58;;;;;;;55.33;35.83;;;;;;;2.83;61.56;101463.38;440225;119;923323;-79
2022/02/24 04:42:02;;;;;;;56.86;34.60;;;;;;;2.83;61.67;101468.77;444177;118;922759;-79
2022/02/24 04:43:06;;;;;;;63.76;35.61;;;;;;;2.82;61.53;101461.67;441235;118;923834;-81
2022/02/24 04:44:09;;;;;;;63.76;35.45;;;;;;;2.81;61.53;101462.70;449480;117;922640;-80
2022/02/24 04:45:13;;;;;;;64.63;35.16;;;;;;;2.81;61.60;101463.52;443561;118;922623;-81
2022/02/24 04:46:18;;;;;;;61.97;36.84;;;;;;;2.82;61.61;101470.61;451407;114;922808;-82
2022/02/24 04:47:22;;;;;;;68.46;37.72;;;;;;;2.82;61.54;101467.91;457687;114;922576;-80
2022/02/24 04:48:25;;;;;;;65.08;40.43;;;;;;;2.83;61.57;101475.01;448505;117;930605;-81
2022/02/24 04:49:29;;;;;;;73.89;41.16;;;;;;;2.84;61.69;101465.09;449635;117;922460;-81
2022/02/24 04:50:32;;;;;;;71.46;41.35;;;;;;;2.87;61.70;101473.72;440410;119;923019;-81